X  Chiuso Dati meteorologici dell'aviazione (METAR)     CYYC Calgary International Airport
Temperatura
-1°C Temperatura
-12°C Punto di rugiada
43% Umidità



Vento
11 KM/O
7 MPH
3 M/S
6 KTS



180°
Sud
Condizioni attuali

Chiaro Chiaro
Pressione 1030.12 (hPa) - 30.42 (inHg)
Visibilità 14.9 (miglio) - 24 (km)
Aeroporto
Codice-Aeroporto CYYC

Posizione: Calgary International Airport
Distanza: 4 (km)

Metar:
CYYC 140600Z 18006KT 15SM SKC M01/M12 A3042 RMK SLP352

Ore: 14-04-2021 00:00 MDT